sensor_id;sensor_type;location;lat;lon;timestamp;P1;durP1;ratioP1;P2;durP2;ratioP2
47896;SDS011;39629;51.400;5.494;2023-09-19T00:02:54;9.30;;;1.67;;
47896;SDS011;39629;51.400;5.494;2023-09-19T00:07:57;8.77;;;1.07;;
47896;SDS011;39629;51.400;5.494;2023-09-19T00:13:01;9.57;;;1.33;;
47896;SDS011;39629;51.400;5.494;2023-09-19T00:18:05;6.43;;;1.00;;
47896;SDS011;39629;51.400;5.494;2023-09-19T00:23:08;8.77;;;1.13;;
47896;SDS011;39629;51.400;5.494;2023-09-19T00:28:11;6.45;;;1.40;;
47896;SDS011;39629;51.400;5.494;2023-09-19T00:33:14;8.68;;;1.20;;
47896;SDS011;39629;51.400;5.494;2023-09-19T00:38:16;7.45;;;1.23;;
47896;SDS011;39629;51.400;5.494;2023-09-19T00:43:22;6.15;;;1.15;;
47896;SDS011;39629;51.400;5.494;2023-09-19T00:48:24;8.17;;;1.50;;
47896;SDS011;39629;51.400;5.494;2023-09-19T00:53:28;8.07;;;1.20;;
47896;SDS011;39629;51.400;5.494;2023-09-19T00:58:35;5.90;;;1.20;;
47896;SDS011;39629;51.400;5.494;2023-09-19T01:03:38;12.82;;;1.50;;
47896;SDS011;39629;51.400;5.494;2023-09-19T01:08:41;6.57;;;1.30;;
47896;SDS011;39629;51.400;5.494;2023-09-19T01:13:47;4.68;;;0.98;;
47896;SDS011;39629;51.400;5.494;2023-09-19T01:19:00;4.03;;;1.00;;
47896;SDS011;39629;51.400;5.494;2023-09-19T01:24:22;4.68;;;1.00;;
47896;SDS011;39629;51.400;5.494;2023-09-19T01:29:51;6.53;;;1.20;;
47896;SDS011;39629;51.400;5.494;2023-09-19T01:45:17;9.90;;;1.83;;
47896;SDS011;39629;51.400;5.494;2023-09-19T01:50:29;5.22;;;1.10;;
47896;SDS011;39629;51.400;5.494;2023-09-19T01:55:37;12.20;;;1.52;;
47896;SDS011;39629;51.400;5.494;2023-09-19T02:00:44;5.15;;;1.08;;
47896;SDS011;39629;51.400;5.494;2023-09-19T02:05:51;5.85;;;1.05;;
47896;SDS011;39629;51.400;5.494;2023-09-19T02:10:54;7.88;;;1.40;;
47896;SDS011;39629;51.400;5.494;2023-09-19T02:15:56;9.60;;;1.40;;
47896;SDS011;39629;51.400;5.494;2023-09-19T02:20:58;4.88;;;0.90;;
47896;SDS011;39629;51.400;5.494;2023-09-19T02:26:00;8.13;;;1.20;;
47896;SDS011;39629;51.400;5.494;2023-09-19T02:31:02;5.05;;;1.13;;
47896;SDS011;39629;51.400;5.494;2023-09-19T02:36:07;8.80;;;1.20;;
47896;SDS011;39629;51.400;5.494;2023-09-19T02:41:08;5.60;;;1.20;;
47896;SDS011;39629;51.400;5.494;2023-09-19T02:46:12;7.85;;;1.35;;
47896;SDS011;39629;51.400;5.494;2023-09-19T02:51:15;8.80;;;0.98;;
47896;SDS011;39629;51.400;5.494;2023-09-19T02:56:16;3.72;;;0.90;;
47896;SDS011;39629;51.400;5.494;2023-09-19T03:01:18;7.25;;;0.82;;
47896;SDS011;39629;51.400;5.494;2023-09-19T03:06:22;3.63;;;0.90;;
47896;SDS011;39629;51.400;5.494;2023-09-19T03:11:24;5.87;;;1.10;;
47896;SDS011;39629;51.400;5.494;2023-09-19T03:16:30;9.30;;;1.08;;
47896;SDS011;39629;51.400;5.494;2023-09-19T03:21:35;7.05;;;1.00;;
47896;SDS011;39629;51.400;5.494;2023-09-19T03:26:36;8.38;;;1.00;;
47896;SDS011;39629;51.400;5.494;2023-09-19T03:31:38;4.78;;;0.90;;
47896;SDS011;39629;51.400;5.494;2023-09-19T03:36:43;2.30;;;0.80;;
47896;SDS011;39629;51.400;5.494;2023-09-19T03:41:45;3.70;;;1.00;;
47896;SDS011;39629;51.400;5.494;2023-09-19T03:46:47;6.65;;;0.90;;
47896;SDS011;39629;51.400;5.494;2023-09-19T03:51:50;7.78;;;0.93;;
47896;SDS011;39629;51.400;5.494;2023-09-19T03:56:52;4.90;;;0.90;;
47896;SDS011;39629;51.400;5.494;2023-09-19T04:01:54;6.47;;;0.90;;
47896;SDS011;39629;51.400;5.494;2023-09-19T04:06:58;5.25;;;0.90;;
47896;SDS011;39629;51.400;5.494;2023-09-19T04:12:01;3.70;;;1.00;;
47896;SDS011;39629;51.400;5.494;2023-09-19T04:17:03;5.22;;;0.95;;
47896;SDS011;39629;51.400;5.494;2023-09-19T04:22:07;3.08;;;0.90;;
47896;SDS011;39629;51.400;5.494;2023-09-19T04:27:10;9.43;;;1.30;;
47896;SDS011;39629;51.400;5.494;2023-09-19T04:32:12;5.05;;;0.90;;
47896;SDS011;39629;51.400;5.494;2023-09-19T04:37:17;4.23;;;1.23;;
47896;SDS011;39629;51.400;5.494;2023-09-19T04:42:18;5.18;;;1.20;;
47896;SDS011;39629;51.400;5.494;2023-09-19T04:47:21;7.18;;;1.10;;
47896;SDS011;39629;51.400;5.494;2023-09-19T04:52:24;8.90;;;1.30;;
47896;SDS011;39629;51.400;5.494;2023-09-19T04:57:26;8.65;;;1.38;;
47896;SDS011;39629;51.400;5.494;2023-09-19T05:02:28;8.57;;;1.35;;
47896;SDS011;39629;51.400;5.494;2023-09-19T05:07:32;6.50;;;1.40;;
47896;SDS011;39629;51.400;5.494;2023-09-19T05:12:34;5.05;;;1.35;;
47896;SDS011;39629;51.400;5.494;2023-09-19T05:17:36;5.72;;;1.10;;
47896;SDS011;39629;51.400;5.494;2023-09-19T05:22:40;6.57;;;1.02;;
47896;SDS011;39629;51.400;5.494;2023-09-19T05:27:41;4.78;;;0.95;;
47896;SDS011;39629;51.400;5.494;2023-09-19T05:32:43;4.72;;;0.98;;
47896;SDS011;39629;51.400;5.494;2023-09-19T05:37:46;3.75;;;0.75;;
47896;SDS011;39629;51.400;5.494;2023-09-19T05:42:51;4.90;;;1.13;;
47896;SDS011;39629;51.400;5.494;2023-09-19T05:47:53;5.75;;;1.20;;
47896;SDS011;39629;51.400;5.494;2023-09-19T05:53:05;6.00;;;0.95;;
47896;SDS011;39629;51.400;5.494;2023-09-19T05:58:07;8.57;;;1.00;;
47896;SDS011;39629;51.400;5.494;2023-09-19T06:03:10;4.82;;;0.88;;
47896;SDS011;39629;51.400;5.494;2023-09-19T06:08:14;8.03;;;1.10;;
47896;SDS011;39629;51.400;5.494;2023-09-19T06:13:16;6.75;;;1.30;;
47896;SDS011;39629;51.400;5.494;2023-09-19T06:18:19;10.15;;;1.20;;
47896;SDS011;39629;51.400;5.494;2023-09-19T06:23:22;6.40;;;0.90;;
47896;SDS011;39629;51.400;5.494;2023-09-19T06:28:26;7.18;;;1.35;;
47896;SDS011;39629;51.400;5.494;2023-09-19T06:33:28;8.45;;;1.10;;
47896;SDS011;39629;51.400;5.494;2023-09-19T06:38:32;6.78;;;1.30;;
47896;SDS011;39629;51.400;5.494;2023-09-19T06:43:36;9.35;;;1.15;;
47896;SDS011;39629;51.400;5.494;2023-09-19T06:48:37;5.60;;;1.00;;
47896;SDS011;39629;51.400;5.494;2023-09-19T06:53:40;7.53;;;1.00;;
47896;SDS011;39629;51.400;5.494;2023-09-19T06:58:42;4.88;;;1.00;;
47896;SDS011;39629;51.400;5.494;2023-09-19T07:03:44;7.93;;;1.02;;
47896;SDS011;39629;51.400;5.494;2023-09-19T07:08:48;7.10;;;1.25;;
47896;SDS011;39629;51.400;5.494;2023-09-19T07:13:50;6.05;;;1.15;;
47896;SDS011;39629;51.400;5.494;2023-09-19T07:18:52;8.50;;;1.10;;
47896;SDS011;39629;51.400;5.494;2023-09-19T07:23:55;4.15;;;1.10;;
47896;SDS011;39629;51.400;5.494;2023-09-19T07:28:57;4.95;;;0.90;;
47896;SDS011;39629;51.400;5.494;2023-09-19T07:33:58;9.55;;;1.40;;
47896;SDS011;39629;51.400;5.494;2023-09-19T07:39:01;6.57;;;1.23;;
47896;SDS011;39629;51.400;5.494;2023-09-19T07:44:07;10.40;;;1.20;;
47896;SDS011;39629;51.400;5.494;2023-09-19T07:49:09;8.73;;;1.30;;
47896;SDS011;39629;51.400;5.494;2023-09-19T07:54:12;5.20;;;0.90;;
47896;SDS011;39629;51.400;5.494;2023-09-19T07:59:14;9.40;;;0.90;;
47896;SDS011;39629;51.400;5.494;2023-09-19T08:04:16;9.15;;;1.10;;
47896;SDS011;39629;51.400;5.494;2023-09-19T08:09:20;6.00;;;0.82;;
47896;SDS011;39629;51.400;5.494;2023-09-19T08:14:22;8.30;;;1.50;;
47896;SDS011;39629;51.400;5.494;2023-09-19T08:19:25;6.32;;;1.70;;
47896;SDS011;39629;51.400;5.494;2023-09-19T08:24:30;6.80;;;1.30;;
47896;SDS011;39629;51.400;5.494;2023-09-19T08:29:33;7.47;;;1.00;;
47896;SDS011;39629;51.400;5.494;2023-09-19T08:34:36;6.20;;;1.25;;
47896;SDS011;39629;51.400;5.494;2023-09-19T08:39:39;5.97;;;1.10;;
47896;SDS011;39629;51.400;5.494;2023-09-19T08:44:41;8.13;;;1.13;;
47896;SDS011;39629;51.400;5.494;2023-09-19T08:49:47;5.10;;;1.00;;
47896;SDS011;39629;51.400;5.494;2023-09-19T08:55:02;4.03;;;1.08;;
47896;SDS011;39629;51.400;5.494;2023-09-19T09:00:10;5.18;;;1.17;;
47896;SDS011;39629;51.400;5.494;2023-09-19T09:05:17;6.75;;;1.02;;
47896;SDS011;39629;51.400;5.494;2023-09-19T09:10:24;7.05;;;1.00;;
47896;SDS011;39629;51.400;5.494;2023-09-19T09:20:30;5.47;;;1.02;;
47896;SDS011;39629;51.400;5.494;2023-09-19T09:25:50;10.18;;;1.40;;
47896;SDS011;39629;51.400;5.494;2023-09-19T09:30:56;5.63;;;1.15;;
47896;SDS011;39629;51.400;5.494;2023-09-19T09:35:59;7.53;;;1.17;;
47896;SDS011;39629;51.400;5.494;2023-09-19T09:41:04;5.75;;;1.35;;
47896;SDS011;39629;51.400;5.494;2023-09-19T09:46:08;8.98;;;1.45;;
47896;SDS011;39629;51.400;5.494;2023-09-19T09:51:35;4.97;;;1.13;;
47896;SDS011;39629;51.400;5.494;2023-09-19T10:01:54;8.73;;;1.17;;
47896;SDS011;39629;51.400;5.494;2023-09-19T10:06:56;5.28;;;1.20;;
47896;SDS011;39629;51.400;5.494;2023-09-19T10:12:06;6.57;;;1.60;;
47896;SDS011;39629;51.400;5.494;2023-09-19T10:17:12;6.13;;;1.35;;
47896;SDS011;39629;51.400;5.494;2023-09-19T10:22:20;5.55;;;1.30;;
47896;SDS011;39629;51.400;5.494;2023-09-19T10:27:24;4.43;;;0.90;;
47896;SDS011;39629;51.400;5.494;2023-09-19T10:32:29;5.82;;;1.23;;
47896;SDS011;39629;51.400;5.494;2023-09-19T10:37:33;4.78;;;1.10;;
47896;SDS011;39629;51.400;5.494;2023-09-19T10:42:39;5.97;;;1.20;;
47896;SDS011;39629;51.400;5.494;2023-09-19T10:47:43;6.40;;;1.02;;
47896;SDS011;39629;51.400;5.494;2023-09-19T10:52:45;5.22;;;0.93;;
47896;SDS011;39629;51.400;5.494;2023-09-19T10:57:51;5.63;;;1.02;;
47896;SDS011;39629;51.400;5.494;2023-09-19T11:08:30;3.45;;;0.90;;
47896;SDS011;39629;51.400;5.494;2023-09-19T11:13:34;4.47;;;0.88;;
47896;SDS011;39629;51.400;5.494;2023-09-19T11:18:52;5.72;;;1.00;;
47896;SDS011;39629;51.400;5.494;2023-09-19T11:29:37;3.58;;;0.63;;
47896;SDS011;39629;51.400;5.494;2023-09-19T11:34:44;5.20;;;0.85;;
47896;SDS011;39629;51.400;5.494;2023-09-19T11:40:05;3.40;;;0.85;;
47896;SDS011;39629;51.400;5.494;2023-09-19T11:51:13;3.58;;;0.80;;
47896;SDS011;39629;51.400;5.494;2023-09-19T11:56:26;2.70;;;0.80;;
47896;SDS011;39629;51.400;5.494;2023-09-19T12:01:29;6.80;;;0.65;;
47896;SDS011;39629;51.400;5.494;2023-09-19T12:06:33;4.07;;;0.80;;
47896;SDS011;39629;51.400;5.494;2023-09-19T12:11:41;3.35;;;0.70;;
47896;SDS011;39629;51.400;5.494;2023-09-19T12:16:45;2.10;;;0.63;;
47896;SDS011;39629;51.400;5.494;2023-09-19T12:22:00;2.13;;;0.57;;
47896;SDS011;39629;51.400;5.494;2023-09-19T12:27:06;2.70;;;0.68;;
47896;SDS011;39629;51.400;5.494;2023-09-19T12:32:08;2.90;;;0.53;;
47896;SDS011;39629;51.400;5.494;2023-09-19T12:37:11;3.03;;;0.60;;
47896;SDS011;39629;51.400;5.494;2023-09-19T12:42:15;3.40;;;0.60;;
47896;SDS011;39629;51.400;5.494;2023-09-19T12:47:18;3.25;;;0.60;;
47896;SDS011;39629;51.400;5.494;2023-09-19T12:52:24;2.05;;;0.55;;
47896;SDS011;39629;51.400;5.494;2023-09-19T13:02:28;2.20;;;0.60;;
47896;SDS011;39629;51.400;5.494;2023-09-19T13:07:44;1.63;;;0.40;;
47896;SDS011;39629;51.400;5.494;2023-09-19T13:12:47;3.38;;;0.77;;
47896;SDS011;39629;51.400;5.494;2023-09-19T13:17:49;2.88;;;0.50;;
47896;SDS011;39629;51.400;5.494;2023-09-19T13:22:52;2.85;;;0.60;;
47896;SDS011;39629;51.400;5.494;2023-09-19T13:27:57;2.55;;;0.50;;
47896;SDS011;39629;51.400;5.494;2023-09-19T13:33:06;3.53;;;0.60;;
47896;SDS011;39629;51.400;5.494;2023-09-19T13:38:11;1.80;;;0.50;;
47896;SDS011;39629;51.400;5.494;2023-09-19T13:43:13;1.65;;;0.50;;
47896;SDS011;39629;51.400;5.494;2023-09-19T13:48:15;2.05;;;0.40;;
47896;SDS011;39629;51.400;5.494;2023-09-19T13:53:23;2.65;;;0.60;;
47896;SDS011;39629;51.400;5.494;2023-09-19T13:58:26;2.75;;;0.50;;
47896;SDS011;39629;51.400;5.494;2023-09-19T14:03:28;1.98;;;0.40;;
47896;SDS011;39629;51.400;5.494;2023-09-19T14:08:31;0.88;;;0.40;;
47896;SDS011;39629;51.400;5.494;2023-09-19T14:13:33;2.20;;;0.50;;
47896;SDS011;39629;51.400;5.494;2023-09-19T14:18:35;2.03;;;0.40;;
47896;SDS011;39629;51.400;5.494;2023-09-19T14:23:38;3.05;;;0.50;;
47896;SDS011;39629;51.400;5.494;2023-09-19T14:28:41;2.13;;;0.52;;
47896;SDS011;39629;51.400;5.494;2023-09-19T14:33:43;0.95;;;0.40;;
47896;SDS011;39629;51.400;5.494;2023-09-19T14:38:46;1.98;;;0.40;;
47896;SDS011;39629;51.400;5.494;2023-09-19T14:43:47;4.25;;;0.65;;
47896;SDS011;39629;51.400;5.494;2023-09-19T14:48:50;1.40;;;0.40;;
47896;SDS011;39629;51.400;5.494;2023-09-19T14:53:54;3.17;;;0.50;;
47896;SDS011;39629;51.400;5.494;2023-09-19T14:58:56;2.40;;;0.50;;
47896;SDS011;39629;51.400;5.494;2023-09-19T15:03:57;3.53;;;0.73;;
47896;SDS011;39629;51.400;5.494;2023-09-19T15:09:02;1.45;;;0.57;;
47896;SDS011;39629;51.400;5.494;2023-09-19T15:14:05;3.08;;;0.60;;
47896;SDS011;39629;51.400;5.494;2023-09-19T15:19:06;1.65;;;0.55;;
47896;SDS011;39629;51.400;5.494;2023-09-19T15:24:09;1.85;;;0.45;;
47896;SDS011;39629;51.400;5.494;2023-09-19T15:29:11;1.97;;;0.60;;
47896;SDS011;39629;51.400;5.494;2023-09-19T15:34:13;2.65;;;0.50;;
47896;SDS011;39629;51.400;5.494;2023-09-19T15:39:17;2.80;;;0.70;;
47896;SDS011;39629;51.400;5.494;2023-09-19T15:44:22;3.38;;;0.63;;
47896;SDS011;39629;51.400;5.494;2023-09-19T15:49:26;1.67;;;0.43;;
47896;SDS011;39629;51.400;5.494;2023-09-19T15:54:29;3.03;;;0.55;;
47896;SDS011;39629;51.400;5.494;2023-09-19T15:59:33;2.22;;;0.70;;
47896;SDS011;39629;51.400;5.494;2023-09-19T16:04:36;4.07;;;0.60;;
47896;SDS011;39629;51.400;5.494;2023-09-19T16:09:39;1.88;;;0.60;;
47896;SDS011;39629;51.400;5.494;2023-09-19T16:14:42;2.72;;;0.68;;
47896;SDS011;39629;51.400;5.494;2023-09-19T16:19:43;2.15;;;0.60;;
47896;SDS011;39629;51.400;5.494;2023-09-19T16:24:46;2.55;;;0.60;;
47896;SDS011;39629;51.400;5.494;2023-09-19T16:29:48;3.07;;;0.77;;
47896;SDS011;39629;51.400;5.494;2023-09-19T16:34:50;4.35;;;0.70;;
47896;SDS011;39629;51.400;5.494;2023-09-19T16:39:53;4.20;;;0.88;;
47896;SDS011;39629;51.400;5.494;2023-09-19T16:44:54;5.47;;;0.80;;
47896;SDS011;39629;51.400;5.494;2023-09-19T16:49:56;5.70;;;0.85;;
47896;SDS011;39629;51.400;5.494;2023-09-19T16:54:59;4.35;;;0.80;;
47896;SDS011;39629;51.400;5.494;2023-09-19T17:00:01;3.37;;;0.90;;
47896;SDS011;39629;51.400;5.494;2023-09-19T17:05:03;3.28;;;0.93;;
47896;SDS011;39629;51.400;5.494;2023-09-19T17:10:08;3.95;;;0.90;;
47896;SDS011;39629;51.400;5.494;2023-09-19T17:15:10;2.83;;;1.00;;
47896;SDS011;39629;51.400;5.494;2023-09-19T17:20:11;2.58;;;0.85;;
47896;SDS011;39629;51.400;5.494;2023-09-19T17:25:14;5.35;;;0.90;;
47896;SDS011;39629;51.400;5.494;2023-09-19T17:30:16;3.65;;;0.82;;
47896;SDS011;39629;51.400;5.494;2023-09-19T17:35:18;3.83;;;0.88;;
47896;SDS011;39629;51.400;5.494;2023-09-19T17:40:22;2.13;;;0.75;;
47896;SDS011;39629;51.400;5.494;2023-09-19T17:45:23;3.88;;;0.80;;
47896;SDS011;39629;51.400;5.494;2023-09-19T17:50:25;4.63;;;0.90;;
47896;SDS011;39629;51.400;5.494;2023-09-19T17:55:27;4.47;;;0.80;;
47896;SDS011;39629;51.400;5.494;2023-09-19T18:00:29;6.50;;;0.80;;
47896;SDS011;39629;51.400;5.494;2023-09-19T18:05:31;4.95;;;1.08;;
47896;SDS011;39629;51.400;5.494;2023-09-19T18:10:37;3.50;;;0.77;;
47896;SDS011;39629;51.400;5.494;2023-09-19T18:15:39;4.18;;;0.82;;
47896;SDS011;39629;51.400;5.494;2023-09-19T18:20:40;4.85;;;0.90;;
47896;SDS011;39629;51.400;5.494;2023-09-19T18:25:44;2.15;;;0.70;;
47896;SDS011;39629;51.400;5.494;2023-09-19T18:30:46;5.40;;;0.90;;
47896;SDS011;39629;51.400;5.494;2023-09-19T18:35:47;2.17;;;0.80;;
47896;SDS011;39629;51.400;5.494;2023-09-19T18:40:50;5.22;;;1.00;;
47896;SDS011;39629;51.400;5.494;2023-09-19T18:45:55;2.90;;;0.75;;
47896;SDS011;39629;51.400;5.494;2023-09-19T18:50:57;3.95;;;0.90;;
47896;SDS011;39629;51.400;5.494;2023-09-19T18:56:07;2.70;;;0.80;;
47896;SDS011;39629;51.400;5.494;2023-09-19T19:01:12;3.33;;;0.73;;
47896;SDS011;39629;51.400;5.494;2023-09-19T19:06:16;4.65;;;0.88;;
47896;SDS011;39629;51.400;5.494;2023-09-19T19:11:19;2.80;;;1.42;;
47896;SDS011;39629;51.400;5.494;2023-09-19T19:16:22;2.83;;;0.88;;
47896;SDS011;39629;51.400;5.494;2023-09-19T19:21:26;3.22;;;0.90;;
47896;SDS011;39629;51.400;5.494;2023-09-19T19:26:29;2.55;;;1.00;;
47896;SDS011;39629;51.400;5.494;2023-09-19T19:31:32;4.50;;;0.77;;
47896;SDS011;39629;51.400;5.494;2023-09-19T19:36:37;2.85;;;0.90;;
47896;SDS011;39629;51.400;5.494;2023-09-19T19:41:40;4.35;;;0.75;;
47896;SDS011;39629;51.400;5.494;2023-09-19T19:46:43;3.15;;;0.80;;
47896;SDS011;39629;51.400;5.494;2023-09-19T19:51:45;2.80;;;0.85;;
47896;SDS011;39629;51.400;5.494;2023-09-19T19:56:49;5.20;;;1.30;;
47896;SDS011;39629;51.400;5.494;2023-09-19T20:01:51;3.15;;;0.95;;
47896;SDS011;39629;51.400;5.494;2023-09-19T20:06:52;4.72;;;1.00;;
47896;SDS011;39629;51.400;5.494;2023-09-19T20:11:55;5.15;;;1.00;;
47896;SDS011;39629;51.400;5.494;2023-09-19T20:16:57;3.72;;;0.75;;
47896;SDS011;39629;51.400;5.494;2023-09-19T20:22:00;4.05;;;0.98;;
47896;SDS011;39629;51.400;5.494;2023-09-19T20:27:03;4.75;;;0.98;;
47896;SDS011;39629;51.400;5.494;2023-09-19T20:32:06;1.98;;;0.70;;
47896;SDS011;39629;51.400;5.494;2023-09-19T20:37:09;1.58;;;0.70;;
47896;SDS011;39629;51.400;5.494;2023-09-19T20:42:12;3.03;;;0.98;;
47896;SDS011;39629;51.400;5.494;2023-09-19T20:47:13;2.40;;;0.90;;
47896;SDS011;39629;51.400;5.494;2023-09-19T20:52:15;2.25;;;0.82;;
47896;SDS011;39629;51.400;5.494;2023-09-19T20:57:18;3.85;;;1.00;;
47896;SDS011;39629;51.400;5.494;2023-09-19T21:02:20;3.03;;;0.70;;
47896;SDS011;39629;51.400;5.494;2023-09-19T21:07:21;3.65;;;0.90;;
47896;SDS011;39629;51.400;5.494;2023-09-19T21:12:25;4.40;;;0.90;;
47896;SDS011;39629;51.400;5.494;2023-09-19T21:17:26;3.95;;;0.93;;
47896;SDS011;39629;51.400;5.494;2023-09-19T21:22:29;2.50;;;0.88;;
47896;SDS011;39629;51.400;5.494;2023-09-19T21:27:32;2.92;;;1.00;;
47896;SDS011;39629;51.400;5.494;2023-09-19T21:32:33;4.20;;;0.90;;
47896;SDS011;39629;51.400;5.494;2023-09-19T21:37:36;4.35;;;1.13;;
47896;SDS011;39629;51.400;5.494;2023-09-19T21:42:39;8.05;;;1.00;;
47896;SDS011;39629;51.400;5.494;2023-09-19T21:47:41;3.15;;;0.90;;
47896;SDS011;39629;51.400;5.494;2023-09-19T21:52:43;3.33;;;1.02;;
47896;SDS011;39629;51.400;5.494;2023-09-19T21:57:46;4.53;;;1.00;;
47896;SDS011;39629;51.400;5.494;2023-09-19T22:02:47;2.50;;;0.90;;
47896;SDS011;39629;51.400;5.494;2023-09-19T22:07:49;4.53;;;1.15;;
47896;SDS011;39629;51.400;5.494;2023-09-19T22:12:52;4.40;;;0.90;;
47896;SDS011;39629;51.400;5.494;2023-09-19T22:17:55;5.43;;;1.00;;
47896;SDS011;39629;51.400;5.494;2023-09-19T22:22:58;4.65;;;1.10;;
47896;SDS011;39629;51.400;5.494;2023-09-19T22:28:01;3.47;;;1.00;;
47896;SDS011;39629;51.400;5.494;2023-09-19T22:33:04;4.32;;;1.00;;
47896;SDS011;39629;51.400;5.494;2023-09-19T22:38:09;5.38;;;1.13;;
47896;SDS011;39629;51.400;5.494;2023-09-19T22:43:12;5.15;;;1.20;;
47896;SDS011;39629;51.400;5.494;2023-09-19T22:48:14;3.15;;;0.93;;
47896;SDS011;39629;51.400;5.494;2023-09-19T22:53:16;4.20;;;1.00;;
47896;SDS011;39629;51.400;5.494;2023-09-19T22:58:21;8.57;;;1.30;;
47896;SDS011;39629;51.400;5.494;2023-09-19T23:03:23;6.10;;;1.55;;
47896;SDS011;39629;51.400;5.494;2023-09-19T23:08:28;5.00;;;1.20;;
47896;SDS011;39629;51.400;5.494;2023-09-19T23:13:32;3.47;;;1.00;;
47896;SDS011;39629;51.400;5.494;2023-09-19T23:18:38;3.38;;;1.00;;
47896;SDS011;39629;51.400;5.494;2023-09-19T23:23:39;3.95;;;1.08;;
47896;SDS011;39629;51.400;5.494;2023-09-19T23:28:43;4.10;;;1.10;;
47896;SDS011;39629;51.400;5.494;2023-09-19T23:33:50;4.13;;;1.17;;
47896;SDS011;39629;51.400;5.494;2023-09-19T23:38:51;4.53;;;1.20;;
47896;SDS011;39629;51.400;5.494;2023-09-19T23:43:59;5.15;;;1.70;;
47896;SDS011;39629;51.400;5.494;2023-09-19T23:49:01;6.90;;;1.20;;
47896;SDS011;39629;51.400;5.494;2023-09-19T23:54:08;3.97;;;1.05;;
47896;SDS011;39629;51.400;5.494;2023-09-19T23:59:15;4.05;;;1.20;;
